sensor_id;sensor_type;location;lat;lon;timestamp;P1;durP1;ratioP1;P2;durP2;ratioP2
58954;SDS011;45815;52.334;5.024;2022-08-11T00:00:35;6.10;;;3.65;;
58954;SDS011;45815;52.334;5.024;2022-08-11T00:03:09;6.60;;;3.35;;
58954;SDS011;45815;52.334;5.024;2022-08-11T00:05:45;7.43;;;3.45;;
58954;SDS011;45815;52.334;5.024;2022-08-11T00:08:20;6.68;;;3.30;;
58954;SDS011;45815;52.334;5.024;2022-08-11T00:10:55;9.30;;;3.50;;
58954;SDS011;45815;52.334;5.024;2022-08-11T00:13:30;6.57;;;3.25;;
58954;SDS011;45815;52.334;5.024;2022-08-11T00:15:57;7.25;;;3.13;;
58954;SDS011;45815;52.334;5.024;2022-08-11T00:18:23;7.55;;;3.50;;
58954;SDS011;45815;52.334;5.024;2022-08-11T00:20:49;7.63;;;3.53;;
58954;SDS011;45815;52.334;5.024;2022-08-11T00:23:15;8.63;;;3.63;;
58954;SDS011;45815;52.334;5.024;2022-08-11T00:25:44;7.85;;;3.38;;
58954;SDS011;45815;52.334;5.024;2022-08-11T00:28:26;9.27;;;3.50;;
58954;SDS011;45815;52.334;5.024;2022-08-11T00:30:55;6.57;;;3.40;;
58954;SDS011;45815;52.334;5.024;2022-08-11T00:33:24;5.40;;;3.00;;
58954;SDS011;45815;52.334;5.024;2022-08-11T00:36:01;8.35;;;3.97;;
58954;SDS011;45815;52.334;5.024;2022-08-11T00:38:28;7.20;;;4.00;;
58954;SDS011;45815;52.334;5.024;2022-08-11T00:46:34;7.43;;;3.85;;
58954;SDS011;45815;52.334;5.024;2022-08-11T00:52:06;6.68;;;3.75;;
58954;SDS011;45815;52.334;5.024;2022-08-11T01:03:41;5.75;;;3.60;;
58954;SDS011;45815;52.334;5.024;2022-08-11T01:06:45;8.63;;;3.33;;
58954;SDS011;45815;52.334;5.024;2022-08-11T01:24:08;5.88;;;3.25;;
58954;SDS011;45815;52.334;5.024;2022-08-11T01:30:09;7.10;;;4.10;;
58954;SDS011;45815;52.334;5.024;2022-08-11T01:46:30;7.13;;;3.70;;
58954;SDS011;45815;52.334;5.024;2022-08-11T01:49:09;7.30;;;3.97;;
58954;SDS011;45815;52.334;5.024;2022-08-11T01:54:31;6.85;;;3.38;;
58954;SDS011;45815;52.334;5.024;2022-08-11T02:00:07;7.47;;;3.95;;
58954;SDS011;45815;52.334;5.024;2022-08-11T02:02:58;6.47;;;3.25;;
58954;SDS011;45815;52.334;5.024;2022-08-11T02:11:22;6.65;;;4.00;;
58954;SDS011;45815;52.334;5.024;2022-08-11T02:14:02;7.13;;;3.85;;
58954;SDS011;45815;52.334;5.024;2022-08-11T02:19:22;5.88;;;3.40;;
58954;SDS011;45815;52.334;5.024;2022-08-11T02:25:25;6.20;;;3.60;;
58954;SDS011;45815;52.334;5.024;2022-08-11T02:28:01;8.48;;;4.30;;
58954;SDS011;45815;52.334;5.024;2022-08-11T02:30:38;6.55;;;3.70;;
58954;SDS011;45815;52.334;5.024;2022-08-11T02:33:42;6.80;;;3.60;;
58954;SDS011;45815;52.334;5.024;2022-08-11T02:36:21;7.22;;;4.15;;
58954;SDS011;45815;52.334;5.024;2022-08-11T02:39:15;8.27;;;4.00;;
58954;SDS011;45815;52.334;5.024;2022-08-11T02:42:04;7.60;;;3.60;;
58954;SDS011;45815;52.334;5.024;2022-08-11T02:47:41;6.35;;;3.90;;
58954;SDS011;45815;52.334;5.024;2022-08-11T02:50:30;8.17;;;3.90;;
58954;SDS011;45815;52.334;5.024;2022-08-11T02:53:24;7.78;;;3.78;;
58954;SDS011;45815;52.334;5.024;2022-08-11T03:02:28;6.32;;;4.00;;
58954;SDS011;45815;52.334;5.024;2022-08-11T03:13:20;7.72;;;4.00;;
58954;SDS011;45815;52.334;5.024;2022-08-11T03:21:41;8.50;;;4.00;;
58954;SDS011;45815;52.334;5.024;2022-08-11T03:32:29;7.22;;;4.15;;
58954;SDS011;45815;52.334;5.024;2022-08-11T03:35:00;7.25;;;4.13;;
58954;SDS011;45815;52.334;5.024;2022-08-11T03:37:41;7.53;;;4.20;;
58954;SDS011;45815;52.334;5.024;2022-08-11T03:43:27;7.57;;;4.10;;
58954;SDS011;45815;52.334;5.024;2022-08-11T03:46:11;8.15;;;4.55;;
58954;SDS011;45815;52.334;5.024;2022-08-11T03:48:54;9.05;;;4.72;;
58954;SDS011;45815;52.334;5.024;2022-08-11T03:51:31;8.30;;;4.68;;
58954;SDS011;45815;52.334;5.024;2022-08-11T03:54:36;8.88;;;4.32;;
58954;SDS011;45815;52.334;5.024;2022-08-11T04:00:22;10.07;;;4.55;;
58954;SDS011;45815;52.334;5.024;2022-08-11T04:12:07;9.07;;;4.63;;
58954;SDS011;45815;52.334;5.024;2022-08-11T04:20:50;10.57;;;4.70;;
58954;SDS011;45815;52.334;5.024;2022-08-11T04:23:49;7.97;;;3.78;;
58954;SDS011;45815;52.334;5.024;2022-08-11T04:47:59;8.80;;;4.95;;
58954;SDS011;45815;52.334;5.024;2022-08-11T04:50:56;8.68;;;4.55;;
58954;SDS011;45815;52.334;5.024;2022-08-11T04:56:42;8.20;;;4.68;;
58954;SDS011;45815;52.334;5.024;2022-08-11T05:02:40;11.98;;;6.05;;
58954;SDS011;45815;52.334;5.024;2022-08-11T05:08:37;25.77;;;12.52;;
58954;SDS011;45815;52.334;5.024;2022-08-11T05:11:11;27.83;;;13.80;;
58954;SDS011;45815;52.334;5.024;2022-08-11T05:13:51;33.97;;;18.17;;
58954;SDS011;45815;52.334;5.024;2022-08-11T05:16:53;14.90;;;8.15;;
58954;SDS011;45815;52.334;5.024;2022-08-11T05:19:45;27.33;;;16.42;;
58954;SDS011;45815;52.334;5.024;2022-08-11T05:22:30;21.75;;;12.43;;
58954;SDS011;45815;52.334;5.024;2022-08-11T05:25:18;18.30;;;8.88;;
58954;SDS011;45815;52.334;5.024;2022-08-11T05:31:12;11.23;;;6.97;;
58954;SDS011;45815;52.334;5.024;2022-08-11T05:34:07;12.40;;;6.72;;
58954;SDS011;45815;52.334;5.024;2022-08-11T05:36:56;9.55;;;5.80;;
58954;SDS011;45815;52.334;5.024;2022-08-11T05:39:30;9.35;;;5.43;;
58954;SDS011;45815;52.334;5.024;2022-08-11T05:42:19;12.30;;;5.78;;
58954;SDS011;45815;52.334;5.024;2022-08-11T05:45:15;12.27;;;6.47;;
58954;SDS011;45815;52.334;5.024;2022-08-11T05:48:00;12.32;;;6.72;;
58954;SDS011;45815;52.334;5.024;2022-08-11T05:50:51;9.30;;;5.40;;
58954;SDS011;45815;52.334;5.024;2022-08-11T05:53:44;10.23;;;5.00;;
58954;SDS011;45815;52.334;5.024;2022-08-11T05:56:39;8.85;;;4.43;;
58954;SDS011;45815;52.334;5.024;2022-08-11T05:59:11;9.35;;;4.80;;
58954;SDS011;45815;52.334;5.024;2022-08-11T06:01:39;8.00;;;3.92;;
58954;SDS011;45815;52.334;5.024;2022-08-11T06:04:06;8.20;;;3.97;;
58954;SDS011;45815;52.334;5.024;2022-08-11T06:06:42;7.88;;;3.80;;
58954;SDS011;45815;52.334;5.024;2022-08-11T06:09:10;8.02;;;4.93;;
58954;SDS011;45815;52.334;5.024;2022-08-11T06:11:38;5.93;;;3.75;;
58954;SDS011;45815;52.334;5.024;2022-08-11T06:14:06;8.60;;;3.97;;
58954;SDS011;45815;52.334;5.024;2022-08-11T06:16:34;7.10;;;3.78;;
58954;SDS011;45815;52.334;5.024;2022-08-11T06:19:01;6.38;;;3.30;;
58954;SDS011;45815;52.334;5.024;2022-08-11T06:21:28;7.75;;;3.33;;
58954;SDS011;45815;52.334;5.024;2022-08-11T06:23:58;7.18;;;3.40;;
58954;SDS011;45815;52.334;5.024;2022-08-11T06:26:25;6.57;;;4.00;;
58954;SDS011;45815;52.334;5.024;2022-08-11T06:28:51;8.23;;;4.95;;
58954;SDS011;45815;52.334;5.024;2022-08-11T06:36:31;9.68;;;4.35;;
58954;SDS011;45815;52.334;5.024;2022-08-11T06:41:58;15.70;;;10.07;;
58954;SDS011;45815;52.334;5.024;2022-08-11T06:44:39;13.93;;;7.22;;
58954;SDS011;45815;52.334;5.024;2022-08-11T06:47:08;18.00;;;12.15;;
58954;SDS011;45815;52.334;5.024;2022-08-11T06:49:37;14.48;;;8.23;;
58954;SDS011;45815;52.334;5.024;2022-08-11T06:52:29;10.80;;;6.28;;
58954;SDS011;45815;52.334;5.024;2022-08-11T06:54:59;9.88;;;5.78;;
58954;SDS011;45815;52.334;5.024;2022-08-11T06:57:32;8.70;;;5.18;;
58954;SDS011;45815;52.334;5.024;2022-08-11T07:00:18;9.55;;;5.25;;
58954;SDS011;45815;52.334;5.024;2022-08-11T07:05:44;7.95;;;5.00;;
58954;SDS011;45815;52.334;5.024;2022-08-11T07:08:14;7.78;;;4.50;;
58954;SDS011;45815;52.334;5.024;2022-08-11T07:11:14;10.65;;;5.30;;
58954;SDS011;45815;52.334;5.024;2022-08-11T07:14:01;8.57;;;5.20;;
58954;SDS011;45815;52.334;5.024;2022-08-11T07:16:47;7.38;;;3.95;;
58954;SDS011;45815;52.334;5.024;2022-08-11T07:19:16;7.22;;;3.85;;
58954;SDS011;45815;52.334;5.024;2022-08-11T07:22:06;20.20;;;5.75;;
58954;SDS011;45815;52.334;5.024;2022-08-11T07:25:06;15.85;;;6.97;;
58954;SDS011;45815;52.334;5.024;2022-08-11T07:30:48;34.50;;;11.95;;
58954;SDS011;45815;52.334;5.024;2022-08-11T07:33:22;8.70;;;5.43;;
58954;SDS011;45815;52.334;5.024;2022-08-11T07:36:05;11.98;;;6.35;;
58954;SDS011;45815;52.334;5.024;2022-08-11T07:41:16;7.70;;;5.47;;
58954;SDS011;45815;52.334;5.024;2022-08-11T07:43:45;9.93;;;4.80;;
58954;SDS011;45815;52.334;5.024;2022-08-11T07:46:15;18.20;;;11.98;;
58954;SDS011;45815;52.334;5.024;2022-08-11T07:49:02;59.65;;;41.10;;
58954;SDS011;45815;52.334;5.024;2022-08-11T07:51:47;20.58;;;13.40;;
58954;SDS011;45815;52.334;5.024;2022-08-11T07:54:32;18.05;;;10.50;;
58954;SDS011;45815;52.334;5.024;2022-08-11T07:56:59;17.92;;;11.70;;
58954;SDS011;45815;52.334;5.024;2022-08-11T07:59:45;14.77;;;9.38;;
58954;SDS011;45815;52.334;5.024;2022-08-11T08:02:36;10.48;;;7.60;;
58954;SDS011;45815;52.334;5.024;2022-08-11T08:05:22;12.95;;;5.93;;
58954;SDS011;45815;52.334;5.024;2022-08-11T08:08:07;9.82;;;5.72;;
58954;SDS011;45815;52.334;5.024;2022-08-11T08:10:53;8.75;;;4.93;;
58954;SDS011;45815;52.334;5.024;2022-08-11T08:13:38;8.40;;;4.70;;
58954;SDS011;45815;52.334;5.024;2022-08-11T08:16:23;7.57;;;4.80;;
58954;SDS011;45815;52.334;5.024;2022-08-11T08:19:10;42.08;;;31.75;;
58954;SDS011;45815;52.334;5.024;2022-08-11T08:21:37;34.35;;;20.70;;
58954;SDS011;45815;52.334;5.024;2022-08-11T08:24:03;18.88;;;14.05;;
58954;SDS011;45815;52.334;5.024;2022-08-11T08:26:30;12.10;;;7.07;;
58954;SDS011;45815;52.334;5.024;2022-08-11T08:29:17;9.45;;;6.07;;
58954;SDS011;45815;52.334;5.024;2022-08-11T08:32:02;10.10;;;6.10;;
58954;SDS011;45815;52.334;5.024;2022-08-11T08:34:28;9.15;;;5.45;;
58954;SDS011;45815;52.334;5.024;2022-08-11T08:36:54;9.10;;;5.90;;
58954;SDS011;45815;52.334;5.024;2022-08-11T08:39:20;9.20;;;5.65;;
58954;SDS011;45815;52.334;5.024;2022-08-11T08:41:48;9.80;;;5.80;;
58954;SDS011;45815;52.334;5.024;2022-08-11T08:44:18;8.77;;;5.28;;
58954;SDS011;45815;52.334;5.024;2022-08-11T08:46:50;9.18;;;5.32;;
58954;SDS011;45815;52.334;5.024;2022-08-11T08:49:21;6.80;;;4.68;;
58954;SDS011;45815;52.334;5.024;2022-08-11T08:51:51;7.43;;;4.85;;
58954;SDS011;45815;52.334;5.024;2022-08-11T08:54:19;8.18;;;4.57;;
58954;SDS011;45815;52.334;5.024;2022-08-11T08:56:51;7.13;;;4.68;;
58954;SDS011;45815;52.334;5.024;2022-08-11T08:59:20;7.28;;;5.00;;
58954;SDS011;45815;52.334;5.024;2022-08-11T09:01:47;8.18;;;4.50;;
58954;SDS011;45815;52.334;5.024;2022-08-11T09:04:17;10.20;;;4.50;;
58954;SDS011;45815;52.334;5.024;2022-08-11T09:06:44;8.98;;;4.55;;
58954;SDS011;45815;52.334;5.024;2022-08-11T09:09:11;8.73;;;4.40;;
58954;SDS011;45815;52.334;5.024;2022-08-11T09:11:38;7.85;;;4.72;;
58954;SDS011;45815;52.334;5.024;2022-08-11T09:14:15;7.97;;;4.65;;
58954;SDS011;45815;52.334;5.024;2022-08-11T09:16:41;8.00;;;4.07;;
58954;SDS011;45815;52.334;5.024;2022-08-11T09:19:08;7.75;;;4.18;;
58954;SDS011;45815;52.334;5.024;2022-08-11T09:21:34;6.75;;;4.25;;
58954;SDS011;45815;52.334;5.024;2022-08-11T09:24:04;8.13;;;4.53;;
58954;SDS011;45815;52.334;5.024;2022-08-11T09:26:49;8.82;;;4.47;;
58954;SDS011;45815;52.334;5.024;2022-08-11T09:29:27;6.43;;;4.15;;
58954;SDS011;45815;52.334;5.024;2022-08-11T09:31:54;9.07;;;4.38;;
58954;SDS011;45815;52.334;5.024;2022-08-11T09:34:22;8.43;;;4.35;;
58954;SDS011;45815;52.334;5.024;2022-08-11T09:36:50;6.82;;;3.92;;
58954;SDS011;45815;52.334;5.024;2022-08-11T09:39:36;8.65;;;3.72;;
58954;SDS011;45815;52.334;5.024;2022-08-11T09:42:21;6.82;;;3.72;;
58954;SDS011;45815;52.334;5.024;2022-08-11T09:45:09;6.85;;;4.10;;
58954;SDS011;45815;52.334;5.024;2022-08-11T09:47:36;7.57;;;4.00;;
58954;SDS011;45815;52.334;5.024;2022-08-11T09:50:02;7.57;;;4.57;;
58954;SDS011;45815;52.334;5.024;2022-08-11T09:52:29;6.40;;;4.45;;
58954;SDS011;45815;52.334;5.024;2022-08-11T09:54:58;9.20;;;4.90;;
58954;SDS011;45815;52.334;5.024;2022-08-11T09:57:25;7.65;;;4.60;;
58954;SDS011;45815;52.334;5.024;2022-08-11T10:00:11;9.80;;;5.32;;
58954;SDS011;45815;52.334;5.024;2022-08-11T10:02:40;9.88;;;6.25;;
58954;SDS011;45815;52.334;5.024;2022-08-11T10:05:08;8.55;;;6.28;;
58954;SDS011;45815;52.334;5.024;2022-08-11T10:07:54;8.27;;;5.20;;
58954;SDS011;45815;52.334;5.024;2022-08-11T10:10:21;9.48;;;6.28;;
58954;SDS011;45815;52.334;5.024;2022-08-11T10:12:54;9.70;;;6.25;;
58954;SDS011;45815;52.334;5.024;2022-08-11T10:15:24;11.45;;;8.07;;
58954;SDS011;45815;52.334;5.024;2022-08-11T10:18:10;9.38;;;5.80;;
58954;SDS011;45815;52.334;5.024;2022-08-11T10:21:00;9.50;;;6.35;;
58954;SDS011;45815;52.334;5.024;2022-08-11T10:23:31;11.40;;;7.32;;
58954;SDS011;45815;52.334;5.024;2022-08-11T10:26:18;9.73;;;6.38;;
58954;SDS011;45815;52.334;5.024;2022-08-11T10:29:04;12.27;;;5.95;;
58954;SDS011;45815;52.334;5.024;2022-08-11T10:31:54;10.32;;;6.22;;
58954;SDS011;45815;52.334;5.024;2022-08-11T10:34:39;9.88;;;5.90;;
58954;SDS011;45815;52.334;5.024;2022-08-11T10:37:07;11.30;;;6.40;;
58954;SDS011;45815;52.334;5.024;2022-08-11T10:39:33;11.10;;;6.88;;
58954;SDS011;45815;52.334;5.024;2022-08-11T10:42:01;7.93;;;5.88;;
58954;SDS011;45815;52.334;5.024;2022-08-11T10:44:46;9.77;;;6.40;;
58954;SDS011;45815;52.334;5.024;2022-08-11T10:47:15;9.63;;;6.30;;
58954;SDS011;45815;52.334;5.024;2022-08-11T10:50:06;8.98;;;5.60;;
58954;SDS011;45815;52.334;5.024;2022-08-11T10:52:52;9.02;;;5.78;;
58954;SDS011;45815;52.334;5.024;2022-08-11T10:55:40;8.38;;;6.78;;
58954;SDS011;45815;52.334;5.024;2022-08-11T10:58:26;10.15;;;6.25;;
58954;SDS011;45815;52.334;5.024;2022-08-11T11:01:10;12.43;;;6.72;;
58954;SDS011;45815;52.334;5.024;2022-08-11T11:03:38;9.35;;;5.68;;
58954;SDS011;45815;52.334;5.024;2022-08-11T11:08:35;7.78;;;5.22;;
58954;SDS011;45815;52.334;5.024;2022-08-11T11:11:17;11.60;;;5.13;;
58954;SDS011;45815;52.334;5.024;2022-08-11T11:13:45;8.13;;;4.28;;
58954;SDS011;45815;52.334;5.024;2022-08-11T11:16:32;8.52;;;5.03;;
58954;SDS011;45815;52.334;5.024;2022-08-11T11:19:18;9.40;;;4.85;;
58954;SDS011;45815;52.334;5.024;2022-08-11T11:21:47;7.68;;;4.80;;
58954;SDS011;45815;52.334;5.024;2022-08-11T11:27:11;6.65;;;4.78;;
58954;SDS011;45815;52.334;5.024;2022-08-11T11:30:18;9.45;;;5.20;;
58954;SDS011;45815;52.334;5.024;2022-08-11T11:37:58;8.00;;;4.55;;
58954;SDS011;45815;52.334;5.024;2022-08-11T11:40:23;17.25;;;15.55;;
58954;SDS011;45815;52.334;5.024;2022-08-11T11:42:50;8.27;;;4.60;;
58954;SDS011;45815;52.334;5.024;2022-08-11T11:45:18;7.10;;;4.15;;
58954;SDS011;45815;52.334;5.024;2022-08-11T11:47:49;8.32;;;4.25;;
58954;SDS011;45815;52.334;5.024;2022-08-11T11:50:20;7.80;;;3.53;;
58954;SDS011;45815;52.334;5.024;2022-08-11T11:52:48;5.38;;;3.53;;
58954;SDS011;45815;52.334;5.024;2022-08-11T11:55:14;7.38;;;3.45;;
58954;SDS011;45815;52.334;5.024;2022-08-11T11:57:42;6.38;;;4.00;;
58954;SDS011;45815;52.334;5.024;2022-08-11T12:00:27;8.27;;;3.90;;
58954;SDS011;45815;52.334;5.024;2022-08-11T12:03:13;8.25;;;3.67;;
58954;SDS011;45815;52.334;5.024;2022-08-11T12:05:38;9.65;;;3.50;;
58954;SDS011;45815;52.334;5.024;2022-08-11T12:08:07;7.47;;;3.25;;
58954;SDS011;45815;52.334;5.024;2022-08-11T12:10:46;7.25;;;2.97;;
58954;SDS011;45815;52.334;5.024;2022-08-11T12:13:12;5.68;;;3.20;;
58954;SDS011;45815;52.334;5.024;2022-08-11T12:15:58;6.13;;;3.05;;
58954;SDS011;45815;52.334;5.024;2022-08-11T12:18:28;7.05;;;2.83;;
58954;SDS011;45815;52.334;5.024;2022-08-11T12:20:57;7.72;;;2.90;;
58954;SDS011;45815;52.334;5.024;2022-08-11T12:23:24;9.93;;;3.22;;
58954;SDS011;45815;52.334;5.024;2022-08-11T12:26:08;4.30;;;2.33;;
58954;SDS011;45815;52.334;5.024;2022-08-11T12:28:52;6.32;;;3.25;;
58954;SDS011;45815;52.334;5.024;2022-08-11T12:31:22;5.95;;;2.08;;
58954;SDS011;45815;52.334;5.024;2022-08-11T12:33:49;5.97;;;2.38;;
58954;SDS011;45815;52.334;5.024;2022-08-11T12:36:15;5.13;;;2.17;;
58954;SDS011;45815;52.334;5.024;2022-08-11T12:38:43;4.38;;;2.08;;
58954;SDS011;45815;52.334;5.024;2022-08-11T12:41:12;5.10;;;2.17;;
58954;SDS011;45815;52.334;5.024;2022-08-11T12:43:58;5.18;;;2.33;;
58954;SDS011;45815;52.334;5.024;2022-08-11T12:46:43;5.72;;;2.10;;
58954;SDS011;45815;52.334;5.024;2022-08-11T12:49:13;6.70;;;2.33;;
58954;SDS011;45815;52.334;5.024;2022-08-11T12:52:01;6.63;;;1.73;;
58954;SDS011;45815;52.334;5.024;2022-08-11T12:55:13;5.55;;;2.03;;
58954;SDS011;45815;52.334;5.024;2022-08-11T12:57:25;5.78;;;2.33;;
58954;SDS011;45815;52.334;5.024;2022-08-11T13:00:16;4.68;;;2.00;;
58954;SDS011;45815;52.334;5.024;2022-08-11T13:03:02;9.02;;;2.15;;
58954;SDS011;45815;52.334;5.024;2022-08-11T13:05:48;6.03;;;2.35;;
58954;SDS011;45815;52.334;5.024;2022-08-11T13:08:18;7.60;;;2.08;;
58954;SDS011;45815;52.334;5.024;2022-08-11T13:10:46;4.72;;;1.90;;
58954;SDS011;45815;52.334;5.024;2022-08-11T13:13:32;4.30;;;1.85;;
58954;SDS011;45815;52.334;5.024;2022-08-11T13:15:58;7.68;;;2.00;;
58954;SDS011;45815;52.334;5.024;2022-08-11T13:18:24;5.30;;;1.80;;
58954;SDS011;45815;52.334;5.024;2022-08-11T13:20:54;4.82;;;1.90;;
58954;SDS011;45815;52.334;5.024;2022-08-11T13:25:48;7.35;;;3.10;;
58954;SDS011;45815;52.334;5.024;2022-08-11T13:28:15;4.30;;;1.83;;
58954;SDS011;45815;52.334;5.024;2022-08-11T13:30:43;4.72;;;1.90;;
58954;SDS011;45815;52.334;5.024;2022-08-11T13:33:28;3.90;;;1.98;;
58954;SDS011;45815;52.334;5.024;2022-08-11T13:35:54;5.28;;;2.63;;
58954;SDS011;45815;52.334;5.024;2022-08-11T13:38:21;5.65;;;2.70;;
58954;SDS011;45815;52.334;5.024;2022-08-11T13:40:49;6.20;;;2.30;;
58954;SDS011;45815;52.334;5.024;2022-08-11T13:43:18;7.13;;;1.77;;
58954;SDS011;45815;52.334;5.024;2022-08-11T13:45:45;5.00;;;1.95;;
58954;SDS011;45815;52.334;5.024;2022-08-11T13:48:12;5.45;;;2.10;;
58954;SDS011;45815;52.334;5.024;2022-08-11T13:50:40;7.47;;;2.58;;
58954;SDS011;45815;52.334;5.024;2022-08-11T13:53:25;4.80;;;1.80;;
58954;SDS011;45815;52.334;5.024;2022-08-11T13:55:54;7.28;;;1.92;;
58954;SDS011;45815;52.334;5.024;2022-08-11T13:58:22;5.35;;;1.83;;
58954;SDS011;45815;52.334;5.024;2022-08-11T14:00:48;6.18;;;2.13;;
58954;SDS011;45815;52.334;5.024;2022-08-11T14:03:16;5.45;;;1.88;;
58954;SDS011;45815;52.334;5.024;2022-08-11T14:05:48;6.80;;;2.22;;
58954;SDS011;45815;52.334;5.024;2022-08-11T14:08:20;5.68;;;1.92;;
58954;SDS011;45815;52.334;5.024;2022-08-11T14:10:50;5.45;;;1.92;;
58954;SDS011;45815;52.334;5.024;2022-08-11T14:13:38;6.13;;;2.10;;
58954;SDS011;45815;52.334;5.024;2022-08-11T14:16:07;5.63;;;2.38;;
58954;SDS011;45815;52.334;5.024;2022-08-11T14:18:39;4.35;;;2.15;;
58954;SDS011;45815;52.334;5.024;2022-08-11T14:21:08;4.20;;;2.00;;
58954;SDS011;45815;52.334;5.024;2022-08-11T14:23:56;7.07;;;3.95;;
58954;SDS011;45815;52.334;5.024;2022-08-11T14:26:23;5.30;;;2.50;;
58954;SDS011;45815;52.334;5.024;2022-08-11T14:29:12;4.90;;;2.90;;
58954;SDS011;45815;52.334;5.024;2022-08-11T14:31:44;5.18;;;2.20;;
58954;SDS011;45815;52.334;5.024;2022-08-11T14:34:15;6.75;;;2.25;;
58954;SDS011;45815;52.334;5.024;2022-08-11T14:39:16;3.95;;;1.92;;
58954;SDS011;45815;52.334;5.024;2022-08-11T14:41:45;8.63;;;2.33;;
58954;SDS011;45815;52.334;5.024;2022-08-11T14:44:32;5.82;;;2.10;;
58954;SDS011;45815;52.334;5.024;2022-08-11T14:47:18;7.47;;;3.85;;
58954;SDS011;45815;52.334;5.024;2022-08-11T14:49:45;5.88;;;2.70;;
58954;SDS011;45815;52.334;5.024;2022-08-11T14:52:13;6.43;;;2.92;;
58954;SDS011;45815;52.334;5.024;2022-08-11T14:54:44;6.13;;;3.20;;
58954;SDS011;45815;52.334;5.024;2022-08-11T14:57:30;5.45;;;2.63;;
58954;SDS011;45815;52.334;5.024;2022-08-11T14:59:57;4.13;;;2.40;;
58954;SDS011;45815;52.334;5.024;2022-08-11T15:02:26;5.32;;;2.75;;
58954;SDS011;45815;52.334;5.024;2022-08-11T15:05:11;6.55;;;3.92;;
58954;SDS011;45815;52.334;5.024;2022-08-11T15:07:37;5.88;;;3.13;;
58954;SDS011;45815;52.334;5.024;2022-08-11T15:10:05;6.60;;;4.00;;
58954;SDS011;45815;52.334;5.024;2022-08-11T15:12:32;5.75;;;2.42;;
58954;SDS011;45815;52.334;5.024;2022-08-11T15:15:00;4.55;;;2.40;;
58954;SDS011;45815;52.334;5.024;2022-08-11T15:17:45;5.13;;;2.42;;
58954;SDS011;45815;52.334;5.024;2022-08-11T15:20:15;5.57;;;2.20;;
58954;SDS011;45815;52.334;5.024;2022-08-11T15:23:02;4.40;;;2.17;;
58954;SDS011;45815;52.334;5.024;2022-08-11T15:25:58;6.15;;;2.20;;
58954;SDS011;45815;52.334;5.024;2022-08-11T15:28:28;4.72;;;2.60;;
58954;SDS011;45815;52.334;5.024;2022-08-11T15:31:13;6.00;;;2.20;;
58954;SDS011;45815;52.334;5.024;2022-08-11T15:33:53;5.68;;;2.35;;
58954;SDS011;45815;52.334;5.024;2022-08-11T15:36:40;5.15;;;2.50;;
58954;SDS011;45815;52.334;5.024;2022-08-11T15:39:29;5.13;;;2.78;;
58954;SDS011;45815;52.334;5.024;2022-08-11T15:42:10;5.47;;;2.30;;
58954;SDS011;45815;52.334;5.024;2022-08-11T15:44:58;5.60;;;2.50;;
58954;SDS011;45815;52.334;5.024;2022-08-11T15:47:47;5.55;;;2.40;;
58954;SDS011;45815;52.334;5.024;2022-08-11T15:50:21;6.65;;;2.42;;
58954;SDS011;45815;52.334;5.024;2022-08-11T15:52:55;5.40;;;2.40;;
58954;SDS011;45815;52.334;5.024;2022-08-11T15:55:23;5.25;;;2.30;;
58954;SDS011;45815;52.334;5.024;2022-08-11T15:57:49;5.32;;;1.92;;
58954;SDS011;45815;52.334;5.024;2022-08-11T16:00:36;6.85;;;2.70;;
58954;SDS011;45815;52.334;5.024;2022-08-11T16:03:22;4.53;;;2.28;;
58954;SDS011;45815;52.334;5.024;2022-08-11T16:06:08;6.78;;;2.20;;
58954;SDS011;45815;52.334;5.024;2022-08-11T16:08:34;5.35;;;2.13;;
58954;SDS011;45815;52.334;5.024;2022-08-11T16:11:01;6.80;;;2.30;;
58954;SDS011;45815;52.334;5.024;2022-08-11T16:13:28;6.28;;;2.15;;
58954;SDS011;45815;52.334;5.024;2022-08-11T16:15:56;4.90;;;2.30;;
58954;SDS011;45815;52.334;5.024;2022-08-11T16:21:13;5.18;;;2.00;;
58954;SDS011;45815;52.334;5.024;2022-08-11T16:23:42;4.03;;;1.90;;
58954;SDS011;45815;52.334;5.024;2022-08-11T16:26:09;5.05;;;2.30;;
58954;SDS011;45815;52.334;5.024;2022-08-11T16:28:37;4.57;;;1.90;;
58954;SDS011;45815;52.334;5.024;2022-08-11T16:31:04;5.13;;;2.15;;
58954;SDS011;45815;52.334;5.024;2022-08-11T16:33:35;4.85;;;2.08;;
58954;SDS011;45815;52.334;5.024;2022-08-11T16:36:05;5.70;;;2.17;;
58954;SDS011;45815;52.334;5.024;2022-08-11T16:38:54;6.18;;;2.80;;
58954;SDS011;45815;52.334;5.024;2022-08-11T16:41:21;6.07;;;2.33;;
58954;SDS011;45815;52.334;5.024;2022-08-11T16:44:10;7.72;;;4.35;;
58954;SDS011;45815;52.334;5.024;2022-08-11T16:46:57;7.93;;;4.40;;
58954;SDS011;45815;52.334;5.024;2022-08-11T16:51:55;11.90;;;8.52;;
58954;SDS011;45815;52.334;5.024;2022-08-11T16:54:20;10.07;;;6.20;;
58954;SDS011;45815;52.334;5.024;2022-08-11T16:56:49;7.82;;;4.57;;
58954;SDS011;45815;52.334;5.024;2022-08-11T17:01:55;7.13;;;3.03;;
58954;SDS011;45815;52.334;5.024;2022-08-11T17:07:26;5.43;;;2.58;;
58954;SDS011;45815;52.334;5.024;2022-08-11T17:10:20;5.63;;;2.47;;
58954;SDS011;45815;52.334;5.024;2022-08-11T17:13:10;4.35;;;2.30;;
58954;SDS011;45815;52.334;5.024;2022-08-11T17:15:47;5.93;;;2.45;;
58954;SDS011;45815;52.334;5.024;2022-08-11T17:21:10;7.80;;;2.50;;
58954;SDS011;45815;52.334;5.024;2022-08-11T17:23:39;4.43;;;2.30;;
58954;SDS011;45815;52.334;5.024;2022-08-11T17:26:32;6.95;;;3.25;;
58954;SDS011;45815;52.334;5.024;2022-08-11T17:32:05;9.77;;;5.68;;
58954;SDS011;45815;52.334;5.024;2022-08-11T17:35:05;8.90;;;4.97;;
58954;SDS011;45815;52.334;5.024;2022-08-11T17:38:02;7.38;;;3.80;;
58954;SDS011;45815;52.334;5.024;2022-08-11T17:40:30;5.88;;;2.67;;
58954;SDS011;45815;52.334;5.024;2022-08-11T17:43:01;5.75;;;3.70;;
58954;SDS011;45815;52.334;5.024;2022-08-11T17:45:46;8.25;;;4.45;;
58954;SDS011;45815;52.334;5.024;2022-08-11T17:48:35;7.00;;;3.33;;
58954;SDS011;45815;52.334;5.024;2022-08-11T17:51:08;10.50;;;6.30;;
58954;SDS011;45815;52.334;5.024;2022-08-11T17:53:37;8.43;;;3.83;;
58954;SDS011;45815;52.334;5.024;2022-08-11T17:56:24;8.00;;;4.57;;
58954;SDS011;45815;52.334;5.024;2022-08-11T17:59:12;5.82;;;2.92;;
58954;SDS011;45815;52.334;5.024;2022-08-11T18:02:34;7.75;;;2.83;;
58954;SDS011;45815;52.334;5.024;2022-08-11T18:05:23;5.82;;;2.65;;
58954;SDS011;45815;52.334;5.024;2022-08-11T18:10:37;4.65;;;2.45;;
58954;SDS011;45815;52.334;5.024;2022-08-11T18:13:23;6.57;;;2.38;;
58954;SDS011;45815;52.334;5.024;2022-08-11T18:16:09;4.72;;;2.60;;
58954;SDS011;45815;52.334;5.024;2022-08-11T18:18:54;6.40;;;2.40;;
58954;SDS011;45815;52.334;5.024;2022-08-11T18:21:39;5.63;;;2.25;;
58954;SDS011;45815;52.334;5.024;2022-08-11T18:24:27;6.50;;;2.85;;
58954;SDS011;45815;52.334;5.024;2022-08-11T18:27:13;12.40;;;5.30;;
58954;SDS011;45815;52.334;5.024;2022-08-11T18:30:00;10.60;;;6.65;;
58954;SDS011;45815;52.334;5.024;2022-08-11T18:32:46;8.02;;;4.85;;
58954;SDS011;45815;52.334;5.024;2022-08-11T18:35:33;6.85;;;3.33;;
58954;SDS011;45815;52.334;5.024;2022-08-11T18:38:18;7.47;;;3.55;;
58954;SDS011;45815;52.334;5.024;2022-08-11T18:41:05;6.40;;;3.20;;
58954;SDS011;45815;52.334;5.024;2022-08-11T18:43:51;5.93;;;2.85;;
58954;SDS011;45815;52.334;5.024;2022-08-11T18:46:38;5.43;;;2.45;;
58954;SDS011;45815;52.334;5.024;2022-08-11T18:49:26;10.80;;;5.22;;
58954;SDS011;45815;52.334;5.024;2022-08-11T18:52:14;10.82;;;6.88;;
58954;SDS011;45815;52.334;5.024;2022-08-11T18:55:00;9.00;;;4.95;;
58954;SDS011;45815;52.334;5.024;2022-08-11T18:57:47;9.75;;;3.70;;
58954;SDS011;45815;52.334;5.024;2022-08-11T19:00:33;6.70;;;2.85;;
58954;SDS011;45815;52.334;5.024;2022-08-11T19:03:20;6.78;;;2.83;;
58954;SDS011;45815;52.334;5.024;2022-08-11T19:06:05;7.70;;;2.70;;
58954;SDS011;45815;52.334;5.024;2022-08-11T19:08:52;8.10;;;2.40;;
58954;SDS011;45815;52.334;5.024;2022-08-11T19:11:39;8.45;;;3.30;;